createdAt,value
2023-01-12T01:36:10.095Z,86.01
2023-01-12T01:50:41.850Z,85.83
2023-01-12T01:53:30.340Z,85.86
2023-01-12T03:25:27.125Z,85.33
2023-01-12T03:43:14.670Z,85.34
2023-01-12T03:49:33.938Z,85.43
2023-01-12T03:55:41.431Z,85.47
2023-01-12T03:58:50.819Z,85.31
2023-01-12T04:01:53.891Z,85.28
2023-01-12T04:19:40.924Z,85.30
2023-01-12T04:26:28.493Z,84.67
2023-01-12T04:32:57.085Z,84.78
2023-01-12T04:35:54.729Z,84.62
2023-01-12T04:38:54.739Z,84.29
2023-01-12T04:45:09.345Z,84.72
2023-01-12T04:51:51.214Z,84.53
2023-01-12T04:54:52.910Z,84.37
2023-01-12T05:00:54.000Z,84.32
2023-01-12T05:07:39.596Z,84.13
2023-01-12T05:37:08.549Z,83.45
2023-01-12T05:46:31.793Z,83.40
2023-01-12T05:50:20.316Z,83.29
2023-01-12T05:52:19.101Z,83.72
2023-01-12T05:54:45.781Z,83.58
2023-01-12T05:57:12.447Z,83.84
2023-01-12T05:59:39.220Z,83.84
2023-01-12T06:02:06.028Z,83.76
2023-01-12T06:04:32.779Z,83.38
2023-01-12T06:06:59.501Z,83.30
2023-01-12T06:09:26.163Z,83.46
2023-01-12T06:12:11.612Z,82.74
2023-01-12T06:14:38.485Z,82.86
2023-01-12T06:17:06.172Z,82.78
2023-01-12T06:19:36.074Z,82.64
2023-01-12T06:22:03.237Z,82.32
2023-01-12T06:24:30.049Z,82.20
2023-01-12T06:26:57.218Z,82.14
2023-01-12T06:29:27.959Z,82.21
2023-01-12T06:31:55.465Z,82.28
2023-01-12T06:34:23.070Z,82.23
2023-01-12T06:36:51.975Z,81.99
2023-01-12T06:39:24.986Z,81.94
2023-01-12T06:42:10.454Z,82.03
2023-01-12T06:44:37.349Z,81.93
2023-01-12T06:47:04.433Z,81.92
2023-01-12T06:49:33.749Z,81.91
2023-01-12T06:52:00.423Z,81.72
2023-01-12T06:54:27.148Z,81.74
2023-01-12T06:56:55.806Z,81.74
2023-01-12T06:59:22.600Z,81.69
2023-01-12T07:01:49.981Z,81.47
2023-01-12T07:04:16.957Z,81.59
2023-01-12T07:06:44.056Z,81.37
2023-01-12T07:09:10.907Z,81.53
2023-01-12T07:11:37.553Z,81.42
2023-01-12T07:14:04.242Z,81.50
2023-01-12T07:16:31.011Z,81.49
2023-01-12T07:18:58.940Z,81.30
2023-01-12T07:21:25.653Z,81.38
2023-01-12T07:23:52.425Z,81.28
2023-01-12T07:26:23.209Z,81.48
2023-01-12T07:28:49.880Z,81.61
2023-01-12T07:31:16.591Z,81.55
2023-01-12T07:33:43.318Z,81.30
2023-01-12T07:36:09.973Z,81.49
2023-01-12T07:38:37.981Z,81.53
2023-01-12T07:41:05.343Z,81.36
2023-01-12T07:43:33.860Z,81.33
2023-01-12T07:46:02.631Z,81.20
2023-01-12T07:48:35.398Z,81.38
2023-01-12T07:51:04.036Z,81.24
2023-01-12T07:53:35.227Z,81.18
2023-01-12T07:56:03.555Z,81.24
2023-01-12T07:58:33.523Z,81.25
2023-01-12T08:01:03.700Z,81.18
2023-01-12T08:03:32.737Z,81.30
2023-01-12T08:06:00.332Z,81.16
2023-01-12T08:08:27.296Z,81.06
2023-01-12T08:10:56.496Z,81.09
2023-01-12T08:13:25.725Z,81.19
2023-01-12T08:15:52.773Z,81.40
2023-01-12T08:18:24.304Z,81.09
2023-01-12T08:20:51.883Z,81.40
2023-01-12T08:23:36.282Z,81.46
2023-01-12T08:26:05.100Z,81.25
2023-01-12T08:28:36.266Z,81.42
2023-01-12T08:31:03.566Z,81.42
2023-01-12T08:33:30.499Z,80.97
2023-01-12T08:35:57.202Z,81.46
2023-01-12T08:38:23.883Z,81.33
2023-01-12T08:41:09.418Z,81.13
2023-01-12T08:43:54.727Z,81.01
2023-01-12T08:46:21.501Z,81.25
2023-01-12T08:48:48.297Z,80.71
2023-01-12T08:51:15.070Z,80.86
2023-01-12T08:53:41.715Z,80.63
2023-01-12T08:56:08.440Z,80.62
2023-01-12T08:58:35.633Z,80.77
2023-01-12T09:01:13.441Z,80.93
2023-01-12T09:03:40.783Z,80.74
2023-01-12T09:06:11.556Z,80.57
2023-01-12T09:08:38.217Z,80.81
2023-01-12T09:11:05.857Z,80.57
2023-01-12T09:13:33.873Z,80.72
2023-01-12T09:16:13.339Z,80.35
2023-01-12T09:18:41.310Z,80.54
2023-01-12T09:21:13.498Z,80.46
2023-01-12T09:23:41.274Z,80.36
2023-01-12T09:26:20.327Z,80.26
2023-01-12T09:28:47.190Z,80.40
2023-01-12T09:31:19.559Z,80.26
2023-01-12T09:33:46.753Z,80.06
2023-01-12T09:36:20.794Z,79.78
2023-01-12T09:38:47.913Z,79.70
2023-01-12T09:41:46.934Z,79.47
2023-01-12T09:44:45.127Z,79.83
2023-01-12T09:47:23.461Z,79.52
2023-01-12T09:50:08.094Z,79.46
2023-01-12T09:52:38.367Z,79.59
2023-01-12T09:55:06.626Z,79.75
2023-01-12T09:57:59.614Z,79.37
2023-01-12T10:00:28.277Z,79.40
2023-01-12T10:03:11.843Z,79.27
2023-01-12T10:05:53.445Z,79.14
2023-01-12T10:08:42.233Z,79.17
2023-01-12T10:11:28.217Z,78.82
2023-01-12T10:14:25.936Z,78.70
2023-01-12T10:17:13.661Z,79.02
2023-01-12T10:20:08.290Z,78.57
2023-01-12T10:22:42.276Z,78.77
2023-01-12T10:25:29.907Z,78.68
2023-01-12T10:27:58.664Z,78.50
2023-01-12T10:30:32.499Z,78.22
2023-01-12T10:33:10.055Z,78.04
2023-01-12T10:35:36.768Z,77.85
2023-01-12T10:38:14.180Z,77.94
2023-01-12T10:40:40.922Z,77.88
2023-01-12T10:43:20.459Z,77.89
2023-01-12T10:46:11.291Z,77.61
2023-01-12T10:48:40.246Z,77.59
2023-01-12T10:51:16.013Z,77.53
2023-01-12T10:53:45.820Z,77.51
2023-01-12T10:56:20.570Z,77.38
2023-01-12T10:58:53.027Z,77.45
2023-01-12T11:01:20.618Z,77.11
2023-01-12T11:03:47.399Z,77.47
2023-01-12T11:06:27.188Z,77.93
2023-01-12T11:08:55.084Z,77.95
2023-01-12T11:11:25.197Z,78.30
2023-01-12T11:13:53.616Z,78.35
2023-01-12T11:16:45.864Z,78.42
2023-01-12T11:19:18.096Z,79.11
2023-01-12T11:21:49.094Z,79.30
2023-01-12T11:24:34.423Z,79.18
2023-01-12T11:27:11.190Z,79.28
2023-01-12T11:29:59.942Z,79.61
2023-01-12T11:32:36.074Z,80.23
2023-01-12T11:35:19.622Z,80.14
2023-01-12T11:37:46.925Z,80.69
2023-01-12T11:40:25.294Z,80.96
2023-01-12T11:43:11.863Z,80.93
2023-01-12T11:45:45.571Z,81.22
2023-01-12T11:48:22.733Z,81.31
2023-01-12T11:50:51.091Z,81.73
2023-01-12T11:53:22.726Z,81.46
2023-01-12T11:56:06.237Z,81.91
2023-01-12T11:58:40.108Z,82.02
2023-01-12T12:01:11.593Z,82.41
2023-01-12T12:03:59.622Z,82.46
2023-01-12T12:06:35.472Z,82.38
2023-01-12T12:09:39.616Z,82.43
2023-01-12T12:12:18.954Z,82.34
2023-01-12T12:15:12.378Z,82.58
2023-01-12T12:17:52.663Z,82.26
2023-01-12T12:20:43.626Z,82.45
2023-01-12T12:23:10.392Z,82.19
2023-01-12T12:25:44.865Z,82.26
2023-01-12T12:28:28.103Z,82.17
2023-01-12T12:31:03.495Z,82.00
2023-01-12T12:33:47.722Z,81.93
2023-01-12T12:36:35.539Z,81.97
2023-01-12T12:39:21.646Z,81.39
2023-01-12T12:42:19.373Z,81.59
2023-01-12T12:45:17.254Z,81.59
2023-01-12T12:47:58.294Z,81.02
2023-01-12T12:50:48.750Z,80.58
2023-01-12T12:53:33.401Z,80.65
2023-01-12T12:56:05.186Z,80.57
2023-01-12T12:58:42.392Z,80.44
2023-01-12T13:01:22.029Z,80.48
2023-01-12T13:03:49.980Z,80.08
2023-01-12T13:06:30.077Z,79.90
2023-01-12T13:08:58.904Z,80.10
2023-01-12T13:11:54.257Z,80.03
2023-01-12T13:14:26.594Z,79.67
2023-01-12T13:16:55.433Z,79.47
2023-01-12T13:19:42.792Z,79.28
2023-01-12T13:22:29.465Z,79.04
2023-01-12T13:24:57.594Z,79.22
2023-01-12T13:27:55.346Z,79.03
2023-01-12T13:30:52.721Z,79.00
2023-01-12T13:33:29.366Z,78.85
2023-01-12T13:36:10.168Z,79.08
2023-01-12T13:38:54.309Z,78.56
2023-01-12T13:41:49.310Z,78.83
2023-01-12T13:44:38.087Z,78.85
2023-01-12T13:47:18.272Z,78.38
2023-01-12T13:49:52.177Z,78.54
2023-01-12T13:52:58.443Z,78.75
2023-01-12T13:55:28.336Z,78.60
2023-01-12T13:58:01.000Z,78.77
2023-01-12T14:00:29.729Z,78.69
2023-01-12T14:02:57.116Z,78.70
2023-01-12T14:05:32.745Z,78.42
2023-01-12T14:08:50.772Z,78.37
2023-01-12T14:11:28.665Z,78.66
2023-01-12T14:14:30.995Z,78.62
2023-01-12T14:17:16.472Z,78.36
2023-01-12T14:19:49.742Z,78.46
2023-01-12T14:22:20.078Z,78.52
2023-01-12T14:24:47.076Z,78.42
2023-01-12T14:27:26.041Z,78.66
2023-01-12T14:29:54.226Z,78.58
2023-01-12T14:32:21.572Z,78.70
2023-01-12T14:34:53.077Z,78.64
2023-01-12T14:37:29.596Z,78.79
2023-01-12T14:39:56.455Z,78.50
2023-01-12T14:42:44.159Z,78.83
2023-01-12T14:45:45.951Z,78.35
2023-01-12T14:48:20.748Z,78.32
2023-01-12T14:51:16.095Z,78.66
2023-01-12T14:53:44.199Z,78.33
2023-01-12T14:56:18.688Z,78.44
2023-01-12T14:58:46.413Z,78.15
2023-01-12T15:01:13.856Z,78.23
2023-01-12T15:03:48.359Z,78.62
2023-01-12T15:06:16.081Z,78.51
2023-01-12T15:08:57.381Z,78.45
2023-01-12T15:11:36.064Z,78.20
2023-01-12T15:14:06.032Z,78.54
2023-01-12T15:16:51.461Z,78.59
2023-01-12T15:19:37.098Z,78.64
2023-01-12T15:22:24.127Z,78.68
2023-01-12T15:25:09.590Z,78.59
2023-01-12T15:27:40.407Z,78.61
2023-01-12T15:30:11.078Z,78.77
2023-01-12T15:32:48.798Z,78.59
2023-01-12T15:35:21.305Z,78.64
2023-01-12T15:37:49.696Z,78.43
2023-01-12T15:40:25.612Z,78.57
2023-01-12T15:46:21.486Z,78.60
2023-01-12T15:49:30.526Z,78.47
2023-01-12T15:53:10.164Z,78.78
2023-01-12T15:55:48.788Z,78.72
2023-01-12T15:58:33.188Z,78.74
2023-01-12T16:01:07.018Z,78.72
2023-01-12T16:04:09.528Z,78.53
2023-01-12T16:06:38.317Z,78.66
2023-01-12T16:09:23.435Z,78.60
2023-01-12T16:11:53.198Z,78.72
2023-01-12T16:14:25.583Z,78.69
2023-01-12T16:16:58.659Z,78.60
2023-01-12T16:19:30.993Z,78.78
2023-01-12T16:22:00.157Z,78.65
2023-01-12T16:24:30.452Z,78.53
2023-01-12T16:26:57.340Z,78.66
2023-01-12T16:29:24.379Z,78.62
2023-01-12T16:31:54.723Z,78.59
2023-01-12T16:34:23.611Z,78.91
2023-01-12T16:36:50.702Z,79.25
2023-01-12T16:39:20.424Z,79.01
2023-01-12T16:41:47.787Z,79.47
2023-01-12T16:44:14.735Z,79.22
2023-01-12T16:46:41.591Z,79.45
2023-01-12T16:49:08.486Z,79.13
2023-01-12T16:51:35.246Z,79.41
2023-01-12T16:54:04.904Z,79.35
2023-01-12T16:56:32.237Z,78.87
2023-01-12T16:58:58.978Z,78.80
2023-01-12T17:01:26.572Z,78.85
2023-01-12T17:03:57.893Z,78.76
2023-01-12T17:06:26.786Z,78.89
2023-01-12T17:08:53.789Z,79.20
2023-01-12T17:11:21.380Z,78.89
2023-01-12T17:13:52.301Z,78.77
2023-01-12T17:16:20.095Z,78.95
2023-01-12T17:18:51.106Z,79.27
2023-01-12T17:21:19.397Z,78.97
2023-01-12T17:23:52.594Z,79.45
2023-01-12T17:26:32.023Z,79.54
2023-01-12T17:28:58.943Z,79.30
2023-01-12T17:31:25.903Z,79.63
2023-01-12T17:33:53.204Z,79.63
2023-01-12T17:36:19.978Z,79.74
2023-01-12T17:38:49.551Z,79.76
2023-01-12T17:41:35.668Z,79.77
2023-01-12T17:44:05.071Z,80.09
2023-01-12T17:46:34.658Z,79.95
2023-01-12T17:49:07.015Z,80.25
2023-01-12T17:51:34.880Z,80.16
2023-01-12T17:54:03.278Z,80.15
2023-01-12T17:56:34.434Z,80.17
2023-01-12T17:59:07.129Z,80.30
2023-01-12T18:01:38.133Z,80.12
2023-01-12T18:06:48.051Z,80.02
2023-01-12T18:09:14.768Z,80.21
2023-01-12T18:11:41.901Z,80.28
2023-01-12T18:14:09.019Z,80.21
2023-01-12T18:16:36.037Z,80.01
2023-01-12T18:19:06.968Z,79.88
2023-01-12T18:21:33.782Z,80.22
2023-01-12T18:24:01.123Z,80.10
2023-01-12T18:26:30.759Z,80.32
2023-01-12T18:28:58.474Z,80.47
2023-01-12T18:31:28.574Z,80.25
2023-01-12T18:34:04.057Z,80.56
2023-01-12T18:36:32.600Z,80.35
2023-01-12T18:38:59.920Z,80.27
2023-01-12T18:41:45.568Z,80.50
2023-01-12T18:44:12.550Z,80.36
2023-01-12T18:47:00.214Z,80.44
2023-01-12T18:49:29.250Z,80.19
2023-01-12T18:52:17.375Z,80.25
2023-01-12T18:55:03.207Z,80.15
2023-01-12T18:57:31.977Z,80.05
2023-01-12T19:00:12.009Z,80.18
2023-01-12T19:02:40.504Z,80.50
2023-01-12T19:05:36.045Z,80.26
2023-01-12T19:08:31.419Z,79.97
2023-01-12T19:11:12.124Z,80.34
2023-01-12T19:13:57.924Z,80.34
2023-01-12T19:16:43.342Z,80.09
2023-01-12T19:19:10.644Z,80.01
2023-01-12T19:21:55.734Z,80.24
2023-01-12T19:24:41.830Z,80.39
2023-01-12T19:27:31.043Z,80.26
2023-01-12T19:29:57.731Z,80.16
2023-01-12T19:32:24.887Z,80.02
2023-01-12T19:34:56.294Z,79.93
2023-01-12T19:37:23.356Z,79.93
2023-01-12T19:40:01.754Z,79.51
2023-01-12T19:42:47.906Z,79.55
2023-01-12T19:45:14.909Z,79.61
2023-01-12T19:47:41.819Z,79.43
2023-01-12T19:50:10.601Z,79.41
2023-01-12T19:52:38.577Z,79.79
2023-01-12T19:55:08.075Z,79.65
2023-01-12T19:57:36.019Z,79.59
2023-01-12T20:00:07.607Z,79.00
2023-01-12T20:02:38.898Z,79.22
2023-01-12T20:05:05.809Z,79.52
2023-01-12T20:07:32.507Z,79.24
2023-01-12T20:10:00.448Z,79.31
2023-01-12T20:12:30.330Z,79.63
2023-01-12T20:14:58.411Z,79.71
2023-01-12T20:17:25.762Z,79.96
2023-01-12T20:19:52.515Z,80.23
2023-01-12T20:22:19.337Z,80.72
2023-01-12T20:24:47.427Z,80.96
2023-01-12T20:27:14.583Z,81.29
2023-01-12T20:29:41.258Z,81.36
2023-01-12T20:32:08.570Z,81.80
2023-01-12T20:34:35.662Z,81.90
2023-01-12T20:37:02.398Z,82.14
2023-01-12T20:39:30.998Z,82.64
2023-01-12T20:41:57.891Z,82.97
2023-01-12T20:44:24.629Z,83.07
2023-01-12T20:46:51.432Z,83.31
2023-01-12T20:49:18.549Z,83.79
2023-01-12T20:51:45.383Z,83.58
2023-01-12T20:54:12.148Z,83.71
2023-01-12T20:56:39.197Z,84.25
2023-01-12T20:59:06.057Z,84.48
2023-01-12T21:01:33.150Z,84.69
2023-01-12T21:07:20.279Z,84.76
2023-01-12T21:09:49.113Z,85.12
2023-01-12T21:12:25.276Z,85.10
2023-01-12T21:15:00.647Z,85.41
2023-01-12T21:17:45.374Z,85.48
2023-01-12T21:23:45.366Z,85.68
2023-01-12T21:26:34.693Z,85.88
2023-01-12T21:29:41.667Z,86.34
2023-01-12T21:39:54.663Z,86.50
2023-01-12T21:43:15.756Z,86.81
2023-01-12T21:45:53.856Z,86.92
2023-01-12T21:48:26.923Z,86.76
2023-01-12T21:51:14.731Z,86.75
2023-01-12T21:54:12.281Z,87.14
2023-01-12T22:00:09.189Z,87.32
2023-01-12T22:02:46.976Z,87.16
2023-01-12T22:05:25.628Z,87.27
2023-01-12T22:07:58.996Z,87.30
2023-01-12T22:10:30.687Z,87.46
2023-01-12T22:13:05.988Z,87.06
2023-01-12T22:15:36.373Z,87.30
2023-01-12T22:18:17.192Z,87.49
2023-01-12T22:20:51.239Z,87.38
2023-01-12T22:23:26.111Z,87.29
2023-01-12T22:26:07.851Z,87.40
2023-01-12T22:28:36.892Z,87.54
2023-01-12T22:31:27.327Z,87.38
2023-01-12T22:34:15.103Z,87.55
2023-01-12T22:37:18.987Z,87.67
2023-01-12T22:40:11.637Z,87.83
2023-01-12T22:46:27.403Z,87.66
2023-01-12T22:49:20.174Z,87.78
2023-01-12T22:52:45.845Z,87.73
2023-01-12T22:55:14.962Z,87.89
2023-01-12T22:58:10.842Z,87.70
2023-01-12T23:01:35.264Z,87.66
2023-01-12T23:04:26.021Z,88.02
2023-01-12T23:07:25.862Z,87.96
2023-01-12T23:09:58.188Z,87.97
2023-01-12T23:12:34.318Z,87.84
2023-01-12T23:15:39.119Z,87.72
2023-01-12T23:18:55.560Z,87.96
2023-01-12T23:21:45.682Z,88.24
2023-01-12T23:24:21.469Z,87.80
2023-01-12T23:26:54.129Z,88.14
2023-01-12T23:29:42.810Z,88.16
2023-01-12T23:32:40.964Z,88.26
2023-01-12T23:35:26.437Z,88.27
2023-01-12T23:38:07.049Z,88.43
2023-01-12T23:40:45.165Z,88.41
2023-01-12T23:43:37.239Z,88.46
2023-01-12T23:46:29.257Z,88.35
2023-01-12T23:49:15.959Z,88.46
2023-01-12T23:52:17.587Z,88.40
2023-01-12T23:55:11.083Z,88.37
2023-01-12T23:57:42.834Z,88.31
